Curtis, Texas
Current Conditions -  °F | °C
As of 8:55 AM on Sunday 23 Nov 2014 (Local Time) from KJAS Reporting Station
Broken Clouds Broken Clouds  
Wind Chill: 16°   Ceiling: 600
Heat Index: 16°   Visibility: 10mi
Dew Point: 15°   Wind: 9mph
Humidity: 95%   Direction: 220°SW
Pressure: 29.65"   Gusts: NA
Location:  30.9529°N, 94.0707°W
Report Text: KJAS 231455Z AUTO 22008KT 10SM BKN006 16/15 A2965 RMK AO2 T01580150
Loading
Personal Weather Stations






























Interactive Weather Map New forecast layout! Learn more

10-Day Weather Forecast

Advertisements
Track Severe Weather on mobile